Pagrindinis puslapis
METAR-TAF:

METAR-TAF

Oro uostai :

Lar, Iranas

platuma: 27-40-26N, ilguma: 054-22-53E, Aukštis: 792 m

Dabartinis oras

Ataskaita buvo paskelbta 47 minutes, ne 12:00 UTC
Ramus vėjas
Temperatūra 25°C
Drėgmė 21%
Slėgis 1013 hPa
Matomumas 10 km arba daugiau
nėra debesų žemiau 1500 m ir nėra kamuolinių lietaus debesų

METAR: OISL 281200Z 00000KT CAVOK 25/01 Q1013 NOSIG

Laikas: 16:17 (12:47 UTC)

Prognozė

Ataskaita buvo paskelbta 57 minutes, ne 11:50 UTC
Prognozė galioja nuo 28 metu 12 UTC su 29 metu 18 UTC
Vėjas 8 kt iš Vakarų
Matomumas: 8000 m

TAF: OISL 281150Z 2812/2918 27008KT 8000 NSC

Orai ataskaitas ir orų prognozės (METAR, TAF).

turimą stotys yra geltonos ir raudonos taškus žemėlapyje.

Perkelti pele per norėdami pamatyti stoties vardą.

Tada spustelėkite, norėdami matyti oro stebėjimo ir prognozės.

Norėdami pakeisti žemėlapį: spustelėkite ant žalios mygtukų su juodo kryžiaus žemyn,; žalią mygtuką su brūkšneliu, jei norite nutolinti; arba žalių rodyklių gretimoms žemėlapius.


METAR-TAF: